Time;durP1;ratioP1;P1;durP2;ratioP2;P2;SDS_P1;SDS_P2;PMS_P1;PMS_P2;Temp;Humidity;BMP_temperature;BMP_pressure;BME280_temperature;BME280_humidity;BME280_pressure;Samples;Min_cycle;Max_cycle;Signal;HPM_P1;HPM_P2
2023/01/26 00:01:20;;;;;;;4.33;3.93;;;;;;;;;;6260697;28;20301;-84
2023/01/26 00:04:26;;;;;;;4.27;4.07;;;;;;;;;;6259832;28;20590;-86
2023/01/26 00:07:31;;;;;;;4.33;3.93;;;;;;;;;;6261208;28;20402;-86
2023/01/26 00:10:39;;;;;;;3.90;3.70;;;;;;;;;;6259293;28;20299;-85
2023/01/26 00:13:44;;;;;;;4.20;3.87;;;;;;;;;;6260627;28;20311;-86
2023/01/26 00:16:49;;;;;;;4.53;4.23;;;;;;;;;;6259426;28;20445;-86
2023/01/26 00:19:56;;;;;;;4.17;3.80;;;;;;;;;;6260315;28;20303;-86
2023/01/26 00:23:01;;;;;;;6.50;4.10;;;;;;;;;;6260399;28;20270;-86
2023/01/26 00:26:09;;;;;;;4.37;3.90;;;;;;;;;;6243613;28;20303;-86
2023/01/26 00:29:16;;;;;;;4.27;4.07;;;;;;;;;;6237313;28;20315;-86
2023/01/26 00:32:22;;;;;;;4.03;3.73;;;;;;;;;;6243015;28;20298;-85
2023/01/26 00:35:30;;;;;;;3.83;3.50;;;;;;;;;;6262525;28;20310;-86
2023/01/26 00:38:36;;;;;;;4.23;4.03;;;;;;;;;;6266092;28;20587;-86
2023/01/26 00:45:07;;;;;;;4.70;4.30;;;;;;;;;;6245315;28;20478;-85
2023/01/26 00:48:12;;;;;;;4.33;4.00;;;;;;;;;;6228541;28;20294;-86
2023/01/26 00:51:17;;;;;;;4.33;4.07;;;;;;;;;;6246246;28;20295;-86
2023/01/26 00:54:23;;;;;;;4.77;4.43;;;;;;;;;;6243707;28;20302;-86
2023/01/26 00:57:29;;;;;;;4.07;3.87;;;;;;;;;;6248318;28;20295;-86
2023/01/26 01:00:38;;;;;;;4.67;4.20;;;;;;;;;;6248269;28;20302;-86
2023/01/26 01:03:43;;;;;;;4.63;3.93;;;;;;;;;;6264954;28;20303;-86
2023/01/26 01:06:49;;;;;;;5.93;4.10;;;;;;;;;;6265507;28;20310;-86
2023/01/26 01:09:54;;;;;;;3.93;3.63;;;;;;;;;;6246736;28;20303;-86
2023/01/26 01:13:01;;;;;;;3.90;3.63;;;;;;;;;;6264667;28;20287;-86
2023/01/26 01:16:08;;;;;;;3.83;3.63;;;;;;;;;;6264714;28;20294;-87
2023/01/26 01:19:14;;;;;;;3.93;3.73;;;;;;;;;;6264495;28;20583;-85
2023/01/26 01:22:20;;;;;;;4.10;3.67;;;;;;;;;;6265297;28;20617;-86
2023/01/26 01:25:25;;;;;;;4.60;4.27;;;;;;;;;;6264270;28;20288;-86
2023/01/26 01:28:32;;;;;;;4.40;3.63;;;;;;;;;;6263622;28;20291;-87
2023/01/26 01:31:37;;;;;;;4.10;3.80;;;;;;;;;;6247389;28;20582;-86
2023/01/26 01:34:44;;;;;;;4.73;3.90;;;;;;;;;;6245402;28;20346;-86
2023/01/26 01:37:49;;;;;;;4.90;4.40;;;;;;;;;;6246314;28;20274;-86
2023/01/26 01:40:55;;;;;;;4.50;4.20;;;;;;;;;;6263569;28;20291;-87
2023/01/26 01:44:18;;;;;;;4.57;4.00;;;;;;;;;;6246503;28;20615;-84
2023/01/26 01:47:26;;;;;;;4.53;4.20;;;;;;;;;;6264699;28;20295;-86
2023/01/26 01:50:36;;;;;;;4.53;4.17;;;;;;;;;;6246318;28;20295;-86
2023/01/26 01:53:44;;;;;;;5.23;4.10;;;;;;;;;;6246062;28;20295;-86
2023/01/26 01:56:52;;;;;;;4.47;4.07;;;;;;;;;;6231866;28;20308;-86
2023/01/26 02:00:04;;;;;;;4.43;4.20;;;;;;;;;;6266245;28;20302;-86
2023/01/26 02:03:20;;;;;;;4.13;3.83;;;;;;;;;;6265562;28;20294;-85
2023/01/26 02:06:31;;;;;;;4.20;4.00;;;;;;;;;;6245768;28;20298;-86
2023/01/26 02:13:02;;;;;;;4.63;4.20;;;;;;;;;;6245909;28;20305;-84
2023/01/26 02:16:13;;;;;;;4.50;4.10;;;;;;;;;;6264030;28;20457;-86
2023/01/26 02:19:25;;;;;;;4.20;3.70;;;;;;;;;;6263686;28;20325;-86
2023/01/26 02:22:42;;;;;;;5.67;4.60;;;;;;;;;;6263945;28;20298;-87
2023/01/26 02:26:13;;;;;;;4.97;4.50;;;;;;;;;;6215069;28;20304;-83
2023/01/26 02:29:19;;;;;;;4.17;3.80;;;;;;;;;;6240947;28;20302;-84
2023/01/26 02:32:27;;;;;;;4.80;4.40;;;;;;;;;;6266300;28;20290;-84
2023/01/26 02:35:32;;;;;;;4.37;4.03;;;;;;;;;;6271155;28;20579;-85
2023/01/26 02:38:41;;;;;;;4.23;3.93;;;;;;;;;;6252602;28;20293;-85
2023/01/26 02:45:15;;;;;;;4.43;4.10;;;;;;;;;;6261469;28;20291;-86
2023/01/26 02:51:41;;;;;;;5.03;4.57;;;;;;;;;;6244404;28;20296;-86
2023/01/26 02:58:12;;;;;;;4.17;3.87;;;;;;;;;;6261080;28;20315;-87
2023/01/26 03:01:20;;;;;;;4.43;4.00;;;;;;;;;;6245172;28;20307;-85
2023/01/26 03:04:25;;;;;;;4.33;3.97;;;;;;;;;;6252514;28;20303;-86
2023/01/26 03:07:31;;;;;;;6.13;4.30;;;;;;;;;;6237393;28;20615;-86
2023/01/26 03:10:36;;;;;;;4.23;3.90;;;;;;;;;;6227977;28;20470;-86
2023/01/26 03:13:43;;;;;;;4.30;4.00;;;;;;;;;;6228164;28;20300;-85
2023/01/26 03:16:50;;;;;;;4.77;3.80;;;;;;;;;;6213091;28;20275;-85
2023/01/26 03:30:19;;;;;;;6.27;4.30;;;;;;;;;;6235402;28;20479;-86
2023/01/26 03:33:27;;;;;;;5.17;4.13;;;;;;;;;;6235259;28;20303;-86
2023/01/26 03:36:33;;;;;;;4.30;4.00;;;;;;;;;;6236372;28;20291;-86
2023/01/26 03:56:48;;;;;;;6.80;4.87;;;;;;;;;;6235319;28;20451;-86
2023/01/26 03:59:54;;;;;;;7.30;5.10;;;;;;;;;;6234913;28;20306;-85
2023/01/26 04:09:50;;;;;;;8.30;5.43;;;;;;;;;;6260456;28;20295;-85
2023/01/26 04:23:20;;;;;;;9.47;5.40;;;;;;;;;;6243164;28;20297;-86
2023/01/26 04:26:33;;;;;;;12.13;5.80;;;;;;;;;;6249914;28;20293;-85
2023/01/26 04:29:41;;;;;;;9.50;5.40;;;;;;;;;;6263232;28;20302;-84
2023/01/26 04:32:47;;;;;;;8.97;5.20;;;;;;;;;;6263015;28;20290;-85
2023/01/26 04:35:53;;;;;;;10.37;5.30;;;;;;;;;;6249095;28;20291;-83
2023/01/26 04:39:01;;;;;;;8.80;5.53;;;;;;;;;;6246188;28;20302;-87
2023/01/26 04:42:06;;;;;;;7.73;5.07;;;;;;;;;;6242914;28;20302;-87
2023/01/26 04:45:12;;;;;;;9.27;5.87;;;;;;;;;;6225932;28;20309;-85
2023/01/26 04:48:18;;;;;;;6.73;5.43;;;;;;;;;;6241975;28;20299;-86
2023/01/26 04:51:23;;;;;;;10.87;5.43;;;;;;;;;;6242973;28;20294;-86
2023/01/26 04:54:30;;;;;;;9.77;5.60;;;;;;;;;;6242541;28;20303;-86
2023/01/26 04:57:36;;;;;;;11.40;6.10;;;;;;;;;;6259473;28;20294;-84
2023/01/26 05:00:42;;;;;;;16.37;6.20;;;;;;;;;;6242238;28;20305;-86
2023/01/26 05:03:48;;;;;;;13.03;5.93;;;;;;;;;;6233439;28;20489;-86
2023/01/26 05:06:53;;;;;;;11.27;6.00;;;;;;;;;;6235813;28;20306;-85
2023/01/26 05:10:03;;;;;;;12.63;6.10;;;;;;;;;;6234270;28;20315;-87
2023/01/26 05:13:20;;;;;;;10.33;5.60;;;;;;;;;;6233747;28;20291;-85
2023/01/26 05:16:51;;;;;;;12.30;6.20;;;;;;;;;;6233823;28;20266;-86
2023/01/26 05:20:19;;;;;;;13.20;6.10;;;;;;;;;;6235298;28;20325;-86
2023/01/26 05:23:43;;;;;;;8.93;6.17;;;;;;;;;;6233848;28;20615;-85
2023/01/26 05:27:22;;;;;;;10.63;6.17;;;;;;;;;;6211096;28;20305;-86
2023/01/26 05:30:36;;;;;;;13.97;6.40;;;;;;;;;;6209207;28;20300;-86
2023/01/26 05:33:42;;;;;;;10.80;6.10;;;;;;;;;;6222776;28;20296;-85
2023/01/26 05:36:50;;;;;;;10.93;6.33;;;;;;;;;;6234497;28;20292;-85
2023/01/26 05:39:58;;;;;;;14.90;6.90;;;;;;;;;;6235484;28;20294;-86
2023/01/26 05:43:07;;;;;;;12.60;5.93;;;;;;;;;;6236389;28;20295;-86
2023/01/26 05:46:28;;;;;;;10.37;5.93;;;;;;;;;;6241967;28;20312;-86
2023/01/26 05:49:37;;;;;;;10.33;6.33;;;;;;;;;;6237877;28;20302;-85
2023/01/26 05:52:45;;;;;;;10.87;6.67;;;;;;;;;;6239324;28;20299;-86
2023/01/26 05:55:51;;;;;;;15.20;7.40;;;;;;;;;;6254752;28;20276;-84
2023/01/26 05:59:01;;;;;;;12.37;6.10;;;;;;;;;;6238185;28;20295;-86
2023/01/26 06:02:08;;;;;;;14.07;7.43;;;;;;;;;;6221679;28;20303;-85
2023/01/26 06:05:15;;;;;;;13.10;6.70;;;;;;;;;;6237827;28;20291;-87
2023/01/26 06:08:22;;;;;;;13.73;6.70;;;;;;;;;;6237547;28;20289;-85
2023/01/26 06:11:40;;;;;;;11.10;6.47;;;;;;;;;;6220261;28;20295;-85
2023/01/26 06:15:04;;;;;;;12.70;6.40;;;;;;;;;;6214087;28;20300;-86
2023/01/26 06:18:17;;;;;;;14.03;6.23;;;;;;;;;;6228630;28;20292;-86
2023/01/26 06:21:29;;;;;;;10.37;6.60;;;;;;;;;;6197551;28;20347;-85
2023/01/26 06:24:34;;;;;;;14.90;6.53;;;;;;;;;;6213065;28;20296;-86
2023/01/26 06:27:41;;;;;;;12.63;5.73;;;;;;;;;;6213692;28;20300;-86
2023/01/26 06:31:02;;;;;;;9.07;5.63;;;;;;;;;;6214370;28;20326;-85
2023/01/26 06:34:07;;;;;;;8.30;5.60;;;;;;;;;;6230540;28;20298;-84
2023/01/26 06:37:16;;;;;;;11.10;5.57;;;;;;;;;;6243283;28;20295;-84
2023/01/26 06:40:23;;;;;;;10.97;5.33;;;;;;;;;;6260107;28;20290;-84
2023/01/26 06:43:29;;;;;;;11.17;5.70;;;;;;;;;;6244172;28;20489;-85
2023/01/26 06:46:35;;;;;;;10.63;5.73;;;;;;;;;;6245117;28;20300;-86
2023/01/26 06:49:42;;;;;;;11.13;5.83;;;;;;;;;;6243049;28;20552;-83
2023/01/26 06:52:52;;;;;;;6.27;5.27;;;;;;;;;;6258644;28;20294;-84
2023/01/26 06:56:26;;;;;;;14.37;5.33;;;;;;;;;;6237895;28;20462;-80
2023/01/26 06:59:36;;;;;;;8.90;5.50;;;;;;;;;;6242500;28;20316;-83
2023/01/26 07:03:01;;;;;;;8.37;4.90;;;;;;;;;;6243713;28;20290;-83
2023/01/26 07:06:11;;;;;;;7.53;5.03;;;;;;;;;;6266901;28;20291;-85
2023/01/26 07:09:16;;;;;;;4.53;3.70;;;;;;;;;;6267096;28;20311;-84
2023/01/26 07:12:21;;;;;;;10.10;5.33;;;;;;;;;;6265446;28;20394;-86
2023/01/26 07:15:26;;;;;;;10.47;5.73;;;;;;;;;;6263387;28;20303;-85
2023/01/26 07:18:35;;;;;;;10.83;5.73;;;;;;;;;;6263431;28;20294;-84
2023/01/26 07:21:41;;;;;;;6.17;4.23;;;;;;;;;;6264296;28;20309;-84
2023/01/26 07:24:46;;;;;;;3.73;3.53;;;;;;;;;;6257289;28;20304;-85
2023/01/26 07:27:56;;;;;;;4.17;3.50;;;;;;;;;;6239344;28;20299;-85
2023/01/26 07:31:02;;;;;;;8.43;2.97;;;;;;;;;;6239594;28;20306;-84
2023/01/26 07:34:10;;;;;;;4.13;3.73;;;;;;;;;;6255651;28;20299;-86
2023/01/26 07:37:16;;;;;;;2.67;2.57;;;;;;;;;;6263074;28;20319;-85
2023/01/26 07:40:21;;;;;;;2.40;2.30;;;;;;;;;;6262276;28;20299;-84
2023/01/26 07:43:26;;;;;;;2.63;2.13;;;;;;;;;;6262013;28;20306;-86
2023/01/26 07:46:31;;;;;;;2.40;2.20;;;;;;;;;;6262351;28;20294;-85
2023/01/26 07:49:38;;;;;;;2.13;2.03;;;;;;;;;;6262630;28;20299;-84
2023/01/26 07:52:43;;;;;;;1.97;1.87;;;;;;;;;;6244435;28;20306;-86
2023/01/26 07:55:49;;;;;;;2.93;1.83;;;;;;;;;;6217689;28;20289;-85
2023/01/26 07:58:55;;;;;;;1.80;1.80;;;;;;;;;;6261467;28;20302;-84
2023/01/26 08:02:01;;;;;;;1.97;1.87;;;;;;;;;;6261435;28;20338;-85
2023/01/26 08:05:09;;;;;;;2.10;2.00;;;;;;;;;;6242635;28;20310;-85
2023/01/26 08:08:16;;;;;;;1.60;1.60;;;;;;;;;;6261326;28;20358;-84
2023/01/26 08:11:24;;;;;;;1.50;1.50;;;;;;;;;;6261153;28;20289;-85
2023/01/26 08:14:29;;;;;;;1.30;1.30;;;;;;;;;;6261132;28;20297;-85
2023/01/26 08:17:50;;;;;;;1.37;1.27;;;;;;;;;;6261066;28;20301;-85
2023/01/26 08:21:00;;;;;;;1.30;1.20;;;;;;;;;;6262615;28;20302;-85
2023/01/26 08:24:06;;;;;;;1.00;1.00;;;;;;;;;;6244933;28;20303;-85
2023/01/26 08:27:11;;;;;;;3.50;1.30;;;;;;;;;;6262868;28;20290;-85
2023/01/26 08:30:17;;;;;;;1.33;1.00;;;;;;;;;;6261344;28;20317;-85
2023/01/26 08:33:22;;;;;;;1.10;1.00;;;;;;;;;;6261603;28;20298;-85
2023/01/26 08:36:29;;;;;;;1.00;1.00;;;;;;;;;;6262059;28;20289;-85
2023/01/26 08:39:35;;;;;;;0.90;0.90;;;;;;;;;;6260038;28;20293;-85
2023/01/26 08:42:40;;;;;;;0.80;0.80;;;;;;;;;;6243533;28;20582;-85
2023/01/26 08:45:47;;;;;;;0.80;0.80;;;;;;;;;;6243921;28;20293;-84
2023/01/26 08:48:55;;;;;;;0.90;0.90;;;;;;;;;;6261651;28;20296;-86
2023/01/26 08:52:05;;;;;;;0.90;0.90;;;;;;;;;;6260467;28;20281;-85
2023/01/26 08:55:10;;;;;;;1.50;1.00;;;;;;;;;;6259571;28;20293;-85
2023/01/26 08:58:16;;;;;;;0.90;0.90;;;;;;;;;;6259795;28;20297;-85
2023/01/26 09:01:21;;;;;;;1.00;1.00;;;;;;;;;;6260104;28;20597;-84
2023/01/26 09:04:27;;;;;;;1.27;0.87;;;;;;;;;;6250026;28;20301;-85
2023/01/26 09:07:34;;;;;;;0.97;0.97;;;;;;;;;;6237211;28;20290;-84
2023/01/26 09:10:39;;;;;;;0.90;0.90;;;;;;;;;;6236948;28;20290;-86
2023/01/26 09:13:45;;;;;;;1.10;1.10;;;;;;;;;;6250721;28;20254;-83
2023/01/26 09:16:51;;;;;;;0.80;0.80;;;;;;;;;;6253853;28;20227;-80
2023/01/26 09:19:56;;;;;;;0.87;0.87;;;;;;;;;;6256889;28;20247;-83
2023/01/26 09:23:03;;;;;;;0.70;0.70;;;;;;;;;;6255382;28;20305;-83
2023/01/26 09:26:08;;;;;;;0.80;0.80;;;;;;;;;;6234841;28;20527;-85
2023/01/26 09:29:16;;;;;;;0.70;0.70;;;;;;;;;;6218314;28;20285;-86
2023/01/26 09:32:21;;;;;;;0.80;0.80;;;;;;;;;;6220667;28;20294;-86
2023/01/26 09:35:27;;;;;;;0.70;0.70;;;;;;;;;;6242250;28;20282;-85
2023/01/26 09:38:33;;;;;;;2.13;0.90;;;;;;;;;;6241654;28;20296;-86
2023/01/26 09:41:50;;;;;;;0.90;0.90;;;;;;;;;;6239752;28;20299;-85
2023/01/26 09:45:00;;;;;;;0.90;0.90;;;;;;;;;;6240500;28;20298;-86
2023/01/26 09:48:21;;;;;;;2.23;2.20;;;;;;;;;;6239371;28;20297;-86
2023/01/26 09:51:34;;;;;;;3.50;3.20;;;;;;;;;;6239950;28;20288;-85
2023/01/26 09:54:43;;;;;;;1.70;1.70;;;;;;;;;;6239721;28;20300;-86
2023/01/26 09:57:50;;;;;;;1.70;1.67;;;;;;;;;;6239380;28;20293;-85
2023/01/26 10:00:58;;;;;;;1.20;1.20;;;;;;;;;;6239201;28;20298;-86
2023/01/26 10:04:10;;;;;;;1.40;1.40;;;;;;;;;;6265439;28;20304;-86
2023/01/26 10:07:16;;;;;;;1.40;1.27;;;;;;;;;;6262954;28;20287;-86
2023/01/26 10:10:28;;;;;;;0.97;0.90;;;;;;;;;;6259323;28;20294;-86
2023/01/26 10:13:35;;;;;;;1.13;1.10;;;;;;;;;;6272993;28;20296;-86
2023/01/26 10:16:41;;;;;;;0.87;0.87;;;;;;;;;;6271594;28;20286;-87
2023/01/26 10:19:50;;;;;;;0.90;0.90;;;;;;;;;;6264288;28;20295;-83
2023/01/26 10:22:56;;;;;;;1.17;1.17;;;;;;;;;;6267875;28;20296;-87
2023/01/26 10:26:12;;;;;;;0.80;0.80;;;;;;;;;;6267748;28;20294;-85
2023/01/26 10:29:19;;;;;;;0.80;0.80;;;;;;;;;;6249720;28;20288;-86
2023/01/26 10:32:24;;;;;;;0.93;0.93;;;;;;;;;;6268463;28;20292;-86
2023/01/26 10:35:30;;;;;;;1.30;1.30;;;;;;;;;;6248637;28;20280;-85
2023/01/26 10:38:41;;;;;;;1.03;1.03;;;;;;;;;;6264930;28;20295;-85
2023/01/26 10:41:59;;;;;;;2.00;1.87;;;;;;;;;;6264991;28;20297;-86
2023/01/26 10:45:07;;;;;;;1.07;1.07;;;;;;;;;;6265405;28;20494;-86
2023/01/26 10:48:18;;;;;;;2.03;1.10;;;;;;;;;;6266144;28;20297;-86
2023/01/26 10:51:30;;;;;;;1.20;1.20;;;;;;;;;;6264099;28;20308;-85
2023/01/26 10:54:36;;;;;;;1.03;1.00;;;;;;;;;;6250059;28;20472;-85
2023/01/26 10:57:43;;;;;;;1.20;1.20;;;;;;;;;;6245987;28;20296;-84
2023/01/26 11:00:56;;;;;;;1.70;1.20;;;;;;;;;;6263615;28;20296;-85
2023/01/26 11:04:05;;;;;;;1.07;1.00;;;;;;;;;;6264805;28;20339;-84
2023/01/26 11:07:25;;;;;;;1.20;1.20;;;;;;;;;;6266741;28;20303;-85
2023/01/26 11:10:32;;;;;;;1.20;1.20;;;;;;;;;;6264374;28;20296;-85
2023/01/26 11:13:39;;;;;;;1.13;0.70;;;;;;;;;;6262687;28;20301;-85
2023/01/26 11:16:47;;;;;;;1.43;1.00;;;;;;;;;;6264787;28;20300;-87
2023/01/26 11:20:03;;;;;;;1.43;1.43;;;;;;;;;;6264984;28;20293;-86
2023/01/26 11:23:17;;;;;;;1.20;1.20;;;;;;;;;;6263131;28;20293;-86
2023/01/26 11:27:01;;;;;;;1.20;1.20;;;;;;;;;;6245756;28;20291;-86
2023/01/26 11:30:38;;;;;;;1.37;1.30;;;;;;;;;;6223119;28;20296;-86
2023/01/26 11:33:50;;;;;;;1.00;1.00;;;;;;;;;;6261218;28;20304;-85
2023/01/26 11:37:06;;;;;;;2.97;1.30;;;;;;;;;;6262190;28;20298;-85
2023/01/26 11:40:24;;;;;;;1.60;1.60;;;;;;;;;;6260350;28;20300;-85
2023/01/26 11:43:47;;;;;;;0.93;0.90;;;;;;;;;;6244097;28;20597;-85
2023/01/26 11:47:02;;;;;;;1.20;1.20;;;;;;;;;;6261385;28;20274;-84
2023/01/26 11:50:23;;;;;;;1.53;0.87;;;;;;;;;;6227027;28;20372;-85
2023/01/26 11:53:52;;;;;;;2.27;0.90;;;;;;;;;;6260628;28;20311;-84
2023/01/26 11:57:07;;;;;;;1.20;0.90;;;;;;;;;;6261757;28;20543;-85
2023/01/26 12:00:17;;;;;;;0.80;0.80;;;;;;;;;;6260797;28;20299;-86
2023/01/26 12:03:41;;;;;;;0.90;0.90;;;;;;;;;;6263307;28;20300;-85
2023/01/26 12:06:52;;;;;;;0.97;0.97;;;;;;;;;;6262616;28;20292;-86
2023/01/26 12:10:01;;;;;;;0.90;0.90;;;;;;;;;;6260181;28;20294;-84
2023/01/26 12:13:10;;;;;;;0.83;0.83;;;;;;;;;;6244405;28;20300;-85
2023/01/26 12:16:21;;;;;;;0.70;0.70;;;;;;;;;;6260688;28;20291;-85
2023/01/26 12:19:43;;;;;;;0.80;0.80;;;;;;;;;;6260133;28;20302;-85
2023/01/26 12:22:53;;;;;;;0.90;0.90;;;;;;;;;;6239872;28;20275;-84
2023/01/26 12:26:01;;;;;;;1.43;1.07;;;;;;;;;;6245362;28;20292;-83
2023/01/26 12:29:12;;;;;;;3.40;1.07;;;;;;;;;;6237283;28;21707;-84
2023/01/26 12:32:17;;;;;;;1.30;1.20;;;;;;;;;;6241038;28;20288;-84
2023/01/26 12:35:32;;;;;;;1.83;1.67;;;;;;;;;;6262401;28;20289;-84
2023/01/26 12:38:43;;;;;;;1.17;1.00;;;;;;;;;;6263229;28;20291;-85
2023/01/26 12:42:06;;;;;;;0.80;0.80;;;;;;;;;;6266260;28;20263;-84
2023/01/26 12:45:15;;;;;;;2.87;1.10;;;;;;;;;;6263049;28;20304;-86
2023/01/26 12:48:25;;;;;;;0.83;0.83;;;;;;;;;;6259718;28;20561;-85
2023/01/26 12:51:35;;;;;;;0.97;0.97;;;;;;;;;;6263463;28;20293;-84
2023/01/26 12:54:45;;;;;;;1.37;1.17;;;;;;;;;;6264927;28;20304;-85
2023/01/26 12:57:53;;;;;;;2.13;1.07;;;;;;;;;;6264928;28;20904;-85
2023/01/26 13:01:02;;;;;;;2.10;1.03;;;;;;;;;;6265942;28;20300;-84
2023/01/26 13:04:10;;;;;;;1.70;0.90;;;;;;;;;;6238504;28;20499;-84
2023/01/26 13:07:35;;;;;;;1.10;0.90;;;;;;;;;;6240501;28;20487;-85
2023/01/26 13:10:49;;;;;;;3.33;0.90;;;;;;;;;;6240117;28;20596;-85
2023/01/26 13:13:56;;;;;;;0.73;0.73;;;;;;;;;;6238429;28;20299;-85
2023/01/26 13:17:35;;;;;;;3.37;1.10;;;;;;;;;;6239974;28;20274;-85
2023/01/26 13:20:45;;;;;;;1.90;1.20;;;;;;;;;;6208465;28;20284;-85
2023/01/26 13:23:51;;;;;;;0.90;0.90;;;;;;;;;;6239861;28;20573;-84
2023/01/26 13:26:58;;;;;;;1.00;1.00;;;;;;;;;;6240257;28;20323;-85
2023/01/26 13:30:04;;;;;;;0.87;0.87;;;;;;;;;;6239670;28;20498;-84
2023/01/26 13:33:23;;;;;;;1.67;1.57;;;;;;;;;;6239714;28;20574;-85
2023/01/26 13:36:33;;;;;;;2.27;1.00;;;;;;;;;;6240335;28;20489;-85
2023/01/26 13:39:44;;;;;;;1.13;1.07;;;;;;;;;;6239486;28;20308;-86
2023/01/26 13:42:55;;;;;;;0.90;0.77;;;;;;;;;;6239686;28;20301;-84
2023/01/26 13:46:14;;;;;;;3.73;0.90;;;;;;;;;;6240172;28;20319;-85
2023/01/26 13:49:26;;;;;;;0.90;0.90;;;;;;;;;;6239499;28;20300;-84
2023/01/26 13:52:32;;;;;;;1.20;0.90;;;;;;;;;;6239353;28;20303;-84
2023/01/26 13:55:41;;;;;;;3.67;1.00;;;;;;;;;;6238868;28;20291;-85
2023/01/26 13:58:46;;;;;;;0.90;0.90;;;;;;;;;;6237883;28;20311;-87
2023/01/26 14:01:55;;;;;;;0.87;0.87;;;;;;;;;;6238707;28;20449;-84
2023/01/26 14:05:02;;;;;;;1.00;1.00;;;;;;;;;;6256913;28;20314;-86
2023/01/26 14:08:11;;;;;;;0.80;0.80;;;;;;;;;;6263361;28;20319;-85
2023/01/26 14:11:26;;;;;;;1.60;0.90;;;;;;;;;;6239228;28;20372;-83
2023/01/26 14:14:36;;;;;;;1.60;0.90;;;;;;;;;;6224303;28;20296;-84
2023/01/26 14:17:49;;;;;;;0.97;0.97;;;;;;;;;;6239739;28;20550;-83
2023/01/26 14:21:00;;;;;;;0.80;0.80;;;;;;;;;;6240538;28;20288;-85
2023/01/26 14:24:09;;;;;;;1.40;1.00;;;;;;;;;;6238885;28;20304;-85
2023/01/26 14:27:29;;;;;;;0.97;0.80;;;;;;;;;;6238381;28;20300;-85
2023/01/26 14:30:35;;;;;;;1.70;1.00;;;;;;;;;;6237860;28;20303;-85
2023/01/26 14:33:41;;;;;;;1.17;1.10;;;;;;;;;;6251544;28;20302;-84
2023/01/26 14:36:47;;;;;;;2.77;1.40;;;;;;;;;;6247114;28;20294;-86
2023/01/26 14:40:14;;;;;;;1.03;1.00;;;;;;;;;;6264381;28;20299;-85
2023/01/26 14:43:22;;;;;;;2.37;1.00;;;;;;;;;;6265504;28;20300;-84
2023/01/26 14:46:30;;;;;;;0.90;0.90;;;;;;;;;;6266473;28;20307;-85
2023/01/26 14:49:42;;;;;;;0.73;0.73;;;;;;;;;;6265232;28;20298;-85
2023/01/26 14:53:16;;;;;;;3.33;1.70;;;;;;;;;;6264525;28;20288;-83
2023/01/26 14:57:00;;;;;;;4.60;3.20;;;;;;;;;;6220764;28;20450;-86
2023/01/26 15:00:18;;;;;;;3.57;2.00;;;;;;;;;;6263032;28;20302;-85
2023/01/26 15:03:26;;;;;;;1.20;1.20;;;;;;;;;;6262203;28;20318;-85
2023/01/26 15:06:32;;;;;;;1.23;1.23;;;;;;;;;;6262470;28;20288;-85
2023/01/26 15:09:38;;;;;;;1.90;1.23;;;;;;;;;;6261935;28;20299;-86
2023/01/26 15:12:44;;;;;;;5.90;1.40;;;;;;;;;;6262789;28;20295;-86
2023/01/26 15:16:04;;;;;;;2.40;1.00;;;;;;;;;;6262601;28;20555;-86
2023/01/26 15:19:23;;;;;;;4.77;1.13;;;;;;;;;;6262675;28;20300;-85
2023/01/26 15:22:29;;;;;;;2.30;1.23;;;;;;;;;;6245032;28;20295;-85
2023/01/26 15:25:34;;;;;;;5.00;0.97;;;;;;;;;;6247939;28;20291;-84
2023/01/26 15:28:42;;;;;;;1.73;1.10;;;;;;;;;;6204521;28;20299;-86
2023/01/26 15:31:55;;;;;;;1.27;0.90;;;;;;;;;;6227481;28;20274;-85
2023/01/26 15:35:18;;;;;;;1.07;1.07;;;;;;;;;;6262935;28;20287;-87
2023/01/26 15:38:24;;;;;;;0.90;0.90;;;;;;;;;;6263407;28;20295;-86
2023/01/26 15:41:29;;;;;;;2.00;1.43;;;;;;;;;;6277792;28;20236;-85
2023/01/26 15:44:34;;;;;;;3.53;1.40;;;;;;;;;;6260841;28;20279;-85
2023/01/26 15:47:41;;;;;;;3.87;1.20;;;;;;;;;;6260743;28;20280;-84
2023/01/26 15:50:47;;;;;;;1.47;1.23;;;;;;;;;;6277514;28;20258;-85
2023/01/26 15:53:52;;;;;;;5.73;1.40;;;;;;;;;;6258390;28;20235;-85
2023/01/26 15:56:58;;;;;;;1.30;1.20;;;;;;;;;;6263002;28;20395;-86
2023/01/26 16:00:06;;;;;;;1.27;1.17;;;;;;;;;;6261520;28;20322;-86
2023/01/26 16:03:16;;;;;;;8.00;4.20;;;;;;;;;;6261267;28;20307;-86
2023/01/26 16:06:26;;;;;;;3.80;3.47;;;;;;;;;;6261251;28;20607;-87
2023/01/26 16:09:32;;;;;;;3.83;2.13;;;;;;;;;;6260621;28;20304;-86
2023/01/26 16:12:37;;;;;;;2.23;2.00;;;;;;;;;;6260784;28;20283;-86
2023/01/26 16:15:44;;;;;;;1.40;1.40;;;;;;;;;;6261528;28;20297;-85
2023/01/26 16:18:51;;;;;;;3.40;2.70;;;;;;;;;;6260756;28;20296;-86
2023/01/26 16:21:56;;;;;;;3.03;2.47;;;;;;;;;;6261240;28;20294;-85
2023/01/26 16:25:01;;;;;;;2.63;2.10;;;;;;;;;;6259994;28;20399;-85
2023/01/26 16:28:07;;;;;;;6.70;1.83;;;;;;;;;;6260627;28;20466;-85
2023/01/26 16:31:15;;;;;;;3.40;1.93;;;;;;;;;;6260343;28;20296;-85
2023/01/26 16:34:22;;;;;;;1.73;1.63;;;;;;;;;;6260523;28;20624;-86
2023/01/26 16:37:27;;;;;;;2.43;1.63;;;;;;;;;;6245274;28;20307;-86
2023/01/26 16:40:33;;;;;;;4.47;1.67;;;;;;;;;;6242640;28;20295;-85
2023/01/26 16:43:41;;;;;;;2.07;1.97;;;;;;;;;;6244740;28;20300;-86
2023/01/26 16:46:47;;;;;;;2.83;1.77;;;;;;;;;;6260153;28;20308;-84
2023/01/26 16:49:53;;;;;;;2.10;2.00;;;;;;;;;;6244559;28;20303;-85
2023/01/26 16:52:59;;;;;;;1.77;1.67;;;;;;;;;;6262085;28;20292;-87
2023/01/26 16:56:06;;;;;;;4.80;2.13;;;;;;;;;;6262982;28;20279;-86
2023/01/26 16:59:13;;;;;;;4.07;1.73;;;;;;;;;;6262856;28;20304;-87
2023/01/26 17:02:24;;;;;;;1.53;1.43;;;;;;;;;;6262148;28;20298;-86
2023/01/26 17:05:32;;;;;;;3.57;2.03;;;;;;;;;;6262209;28;20568;-86
2023/01/26 17:08:40;;;;;;;2.67;1.80;;;;;;;;;;6262597;28;20307;-86
2023/01/26 17:11:48;;;;;;;1.60;1.50;;;;;;;;;;6235899;28;20298;-86
2023/01/26 17:14:53;;;;;;;3.13;2.00;;;;;;;;;;6235309;28;20604;-85
2023/01/26 17:18:00;;;;;;;3.97;2.20;;;;;;;;;;6236288;28;20590;-87
2023/01/26 17:21:08;;;;;;;3.97;2.90;;;;;;;;;;6220484;28;20295;-86
2023/01/26 17:24:16;;;;;;;4.87;1.70;;;;;;;;;;6235485;28;20306;-85
2023/01/26 17:27:22;;;;;;;4.73;2.30;;;;;;;;;;6235984;28;20295;-86
2023/01/26 17:30:27;;;;;;;1.83;1.70;;;;;;;;;;6234787;28;20295;-86
2023/01/26 17:33:35;;;;;;;5.70;1.90;;;;;;;;;;6248957;28;20295;-86
2023/01/26 17:36:42;;;;;;;5.67;1.50;;;;;;;;;;6252582;28;20294;-84
2023/01/26 17:39:50;;;;;;;1.70;1.70;;;;;;;;;;6253056;28;20291;-84
2023/01/26 17:42:55;;;;;;;3.27;2.10;;;;;;;;;;6264888;28;20280;-84
2023/01/26 17:46:05;;;;;;;2.07;1.97;;;;;;;;;;6264727;28;20301;-86
2023/01/26 17:49:11;;;;;;;2.40;2.10;;;;;;;;;;6264243;28;20307;-84
2023/01/26 17:52:17;;;;;;;3.47;2.00;;;;;;;;;;6264420;28;20292;-85
2023/01/26 17:55:22;;;;;;;1.87;1.80;;;;;;;;;;6263909;28;20307;-83
2023/01/26 17:58:28;;;;;;;6.83;1.90;;;;;;;;;;6263640;28;20619;-80
2023/01/26 18:01:33;;;;;;;2.10;2.00;;;;;;;;;;6263651;28;20320;-84
2023/01/26 18:04:38;;;;;;;3.53;2.43;;;;;;;;;;6263305;28;20316;-79
2023/01/26 18:07:48;;;;;;;3.83;1.90;;;;;;;;;;6262959;28;20583;-83
2023/01/26 18:10:58;;;;;;;3.03;1.87;;;;;;;;;;6229503;28;20413;-85
2023/01/26 18:14:04;;;;;;;2.20;2.00;;;;;;;;;;6263260;28;20304;-85
2023/01/26 18:17:12;;;;;;;2.10;2.00;;;;;;;;;;6246145;28;20293;-82
2023/01/26 18:20:17;;;;;;;2.00;1.87;;;;;;;;;;6238244;28;20295;-81
2023/01/26 18:23:25;;;;;;;2.20;1.80;;;;;;;;;;6238575;28;20289;-84
2023/01/26 18:26:34;;;;;;;3.67;1.87;;;;;;;;;;6238853;28;20294;-83
2023/01/26 18:29:42;;;;;;;1.97;1.87;;;;;;;;;;6221715;28;20297;-85
2023/01/26 18:32:47;;;;;;;2.23;1.90;;;;;;;;;;6238936;28;20590;-84
2023/01/26 18:35:53;;;;;;;2.23;2.13;;;;;;;;;;6238624;28;20302;-84
2023/01/26 18:39:02;;;;;;;2.00;1.90;;;;;;;;;;6220821;28;20301;-81
2023/01/26 18:42:07;;;;;;;4.80;1.90;;;;;;;;;;6237525;28;20435;-82
2023/01/26 18:45:14;;;;;;;2.00;1.87;;;;;;;;;;6238140;28;20292;-85
2023/01/26 18:48:20;;;;;;;3.40;1.60;;;;;;;;;;6236262;28;20313;-84
2023/01/26 18:51:26;;;;;;;2.73;1.93;;;;;;;;;;6238195;28;20301;-85
2023/01/26 18:54:33;;;;;;;1.67;1.67;;;;;;;;;;6237836;28;20372;-84
2023/01/26 18:57:38;;;;;;;3.30;1.70;;;;;;;;;;6252790;28;20526;-85
2023/01/26 19:00:43;;;;;;;1.90;1.80;;;;;;;;;;6237842;28;20296;-81
2023/01/26 19:03:54;;;;;;;2.40;1.60;;;;;;;;;;6236938;28;20552;-81
2023/01/26 19:06:59;;;;;;;4.63;1.67;;;;;;;;;;6237768;28;20288;-81
2023/01/26 19:10:07;;;;;;;3.07;1.77;;;;;;;;;;6257253;28;20478;-84
2023/01/26 19:13:13;;;;;;;2.17;1.90;;;;;;;;;;6243387;28;20330;-82
2023/01/26 19:16:18;;;;;;;2.43;1.70;;;;;;;;;;6261641;28;20311;-84
2023/01/26 19:19:24;;;;;;;4.23;1.60;;;;;;;;;;6244026;28;20486;-84
2023/01/26 19:22:29;;;;;;;2.50;1.90;;;;;;;;;;6262181;28;20295;-86
2023/01/26 19:25:38;;;;;;;4.33;1.97;;;;;;;;;;6261177;28;20285;-84
2023/01/26 19:28:45;;;;;;;2.20;2.00;;;;;;;;;;6262496;28;20296;-83
2023/01/26 19:31:54;;;;;;;2.53;1.60;;;;;;;;;;6260100;28;20275;-84
2023/01/26 19:35:00;;;;;;;3.07;1.60;;;;;;;;;;6261577;28;20298;-85
2023/01/26 19:38:06;;;;;;;2.90;1.60;;;;;;;;;;6261793;28;20292;-85
2023/01/26 19:41:15;;;;;;;2.20;1.60;;;;;;;;;;6262056;28;20549;-85
2023/01/26 19:44:21;;;;;;;2.13;1.90;;;;;;;;;;6260715;28;20370;-84
2023/01/26 19:47:26;;;;;;;1.60;1.60;;;;;;;;;;6261521;28;20292;-84
2023/01/26 19:50:32;;;;;;;3.53;1.70;;;;;;;;;;6260842;28;20290;-84
2023/01/26 19:53:39;;;;;;;1.70;1.70;;;;;;;;;;6260482;28;20600;-84